createdAt,value
2017-12-08T00:00:58.245Z,21.4
2017-12-08T00:01:59.845Z,21.4
2017-12-08T00:03:01.733Z,21.3
2017-12-08T00:04:03.631Z,21.4
2017-12-08T00:05:05.226Z,21.4
2017-12-08T00:06:06.568Z,21.4
2017-12-08T00:07:07.913Z,21.4
2017-12-08T00:08:09.511Z,21.4
2017-12-08T00:09:11.410Z,21.4
2017-12-08T00:10:13.305Z,21.4
2017-12-08T00:11:14.627Z,21.4
2017-12-08T00:12:16.227Z,21.5
2017-12-08T00:13:17.583Z,21.4
2017-12-08T00:14:19.188Z,21.4
2017-12-08T00:15:21.092Z,21.4
2017-12-08T00:16:22.408Z,21.4
2017-12-08T00:17:23.750Z,21.4
2017-12-08T00:18:25.650Z,21.4
2017-12-08T00:19:27.269Z,21.5
2017-12-08T00:20:28.888Z,21.5
2017-12-08T00:21:30.783Z,21.4
2017-12-08T00:22:32.678Z,21.4
2017-12-08T00:23:34.303Z,21.4
2017-12-08T00:24:35.623Z,21.4
2017-12-08T00:25:37.243Z,21.4
2017-12-08T00:26:38.864Z,21.4
2017-12-08T00:27:40.761Z,21.5
2017-12-08T00:28:42.381Z,21.5
2017-12-08T00:29:43.726Z,21.5
2017-12-08T00:30:44.791Z,21.4
2017-12-08T00:31:46.137Z,21.5
2017-12-08T00:32:48.035Z,21.4
2017-12-08T00:33:49.927Z,21.4
2017-12-08T00:34:51.825Z,21.4
2017-12-08T00:35:53.147Z,21.4
2017-12-08T00:36:54.469Z,21.4
2017-12-08T00:37:56.090Z,21.4
2017-12-08T00:38:57.430Z,21.5
2017-12-08T00:39:59.327Z,21.4
2017-12-08T00:41:00.928Z,21.4
2017-12-08T00:42:02.248Z,21.4
2017-12-08T00:43:04.173Z,21.5
2017-12-08T00:44:06.078Z,21.4
2017-12-08T00:45:07.401Z,21.4
2017-12-08T00:46:09.020Z,21.4
2017-12-08T00:47:10.344Z,21.4
2017-12-08T00:48:11.690Z,21.4
2017-12-08T00:49:13.312Z,21.4
2017-12-08T00:50:14.952Z,21.4
2017-12-08T00:51:16.853Z,21.4
2017-12-08T00:52:18.740Z,21.5
2017-12-08T00:53:20.342Z,21.5
2017-12-08T00:54:21.940Z,21.4
2017-12-08T00:55:23.560Z,21.4
2017-12-08T00:56:24.883Z,21.5
2017-12-08T00:57:26.505Z,21.4
2017-12-08T00:58:28.108Z,21.5
2017-12-08T00:59:30.005Z,21.4
2017-12-08T01:02:32.384Z,21.4
2017-12-08T01:03:34.282Z,21.4
2017-12-08T01:04:36.179Z,21.4
2017-12-08T01:05:37.796Z,21.5
2017-12-08T01:06:39.412Z,21.4
2017-12-08T01:07:41.031Z,21.4
2017-12-08T01:08:42.392Z,21.4
2017-12-08T01:09:44.008Z,21.4
2017-12-08T01:10:45.605Z,21.4
2017-12-08T01:11:47.229Z,21.5
2017-12-08T01:12:48.820Z,21.4
2017-12-08T01:13:49.863Z,21.4
2017-12-08T01:14:51.463Z,21.4
2017-12-08T01:15:52.783Z,21.4
2017-12-08T01:16:54.403Z,21.4
2017-12-08T01:17:55.725Z,21.4
2017-12-08T01:18:57.071Z,21.4
2017-12-08T01:19:58.685Z,21.4
2017-12-08T01:21:00.008Z,21.4
2017-12-08T01:22:01.350Z,21.4
2017-12-08T01:23:02.972Z,21.4
2017-12-08T01:24:04.871Z,21.4
2017-12-08T01:25:06.488Z,21.4
2017-12-08T01:26:08.382Z,21.4
2017-12-08T01:27:10.279Z,21.4
2017-12-08T01:28:11.901Z,21.4
2017-12-08T01:29:13.520Z,21.4
2017-12-08T01:30:15.418Z,21.4
2017-12-08T01:31:16.750Z,21.5
2017-12-08T01:32:18.139Z,21.5
2017-12-08T01:33:20.033Z,21.4
2017-12-08T01:34:21.928Z,21.4
2017-12-08T01:35:23.825Z,21.4
2017-12-08T01:36:25.481Z,21.4
2017-12-08T01:37:27.082Z,21.4
2017-12-08T01:38:28.424Z,21.4
2017-12-08T01:39:30.023Z,21.4
2017-12-08T01:40:31.921Z,21.4
2017-12-08T01:41:33.541Z,21.4
2017-12-08T01:42:35.440Z,21.4
2017-12-08T01:43:36.487Z,21.4
2017-12-08T01:44:39.010Z,21.4
2017-12-08T01:45:40.608Z,21.3
2017-12-08T01:46:42.226Z,21.4
2017-12-08T01:47:44.127Z,21.4
2017-12-08T01:48:46.025Z,21.4
2017-12-08T01:49:47.645Z,21.4
2017-12-08T01:50:49.243Z,21.4
2017-12-08T01:51:51.138Z,21.4
2017-12-08T01:52:52.755Z,21.3
2017-12-08T01:53:54.650Z,21.3
2017-12-08T01:54:56.543Z,21.4
2017-12-08T01:55:58.437Z,21.3
2017-12-08T01:57:00.335Z,21.4
2017-12-08T01:58:01.686Z,21.4
2017-12-08T01:59:03.599Z,21.4
2017-12-08T02:00:04.923Z,21.4
2017-12-08T02:01:06.541Z,21.2
2017-12-08T02:02:08.436Z,21.3
2017-12-08T02:03:10.061Z,21.3
2017-12-08T02:04:11.673Z,21.4
2017-12-08T02:05:13.568Z,21.3
2017-12-08T02:06:15.464Z,21.4
2017-12-08T02:07:16.786Z,21.3
2017-12-08T02:08:18.405Z,21.4
2017-12-08T02:09:20.302Z,21.4
2017-12-08T02:10:21.920Z,21.4
2017-12-08T02:11:23.260Z,21.3
2017-12-08T02:12:25.154Z,21.3
2017-12-08T02:13:26.772Z,21.4
2017-12-08T02:14:28.092Z,21.3
2017-12-08T02:15:29.708Z,21.3
2017-12-08T02:16:31.603Z,21.4
2017-12-08T02:17:32.942Z,21.3
2017-12-08T02:18:34.837Z,21.3
2017-12-08T02:19:36.734Z,21.3
2017-12-08T02:20:37.774Z,21.4
2017-12-08T02:21:39.391Z,21.4
2017-12-08T02:22:41.020Z,21.3
2017-12-08T02:23:42.907Z,21.2
2017-12-08T02:24:44.802Z,21.3
2017-12-08T02:25:46.419Z,21.3
2017-12-08T02:26:48.039Z,21.3
2017-12-08T02:27:49.656Z,21.4
2017-12-08T02:28:51.572Z,21.4
2017-12-08T02:29:53.189Z,21.3
2017-12-08T02:30:54.787Z,21.3
2017-12-08T02:31:56.109Z,21.3
2017-12-08T02:32:57.702Z,21.3
2017-12-08T02:33:59.613Z,21.4
2017-12-08T02:35:00.944Z,21.4
2017-12-08T02:36:02.552Z,21.3
2017-12-08T02:37:04.172Z,21.3
2017-12-08T02:38:06.069Z,21.3
2017-12-08T02:39:07.689Z,21.3
2017-12-08T02:40:09.306Z,21.4
2017-12-08T02:41:11.202Z,21.3
2017-12-08T02:42:12.822Z,21.4
2017-12-08T02:43:14.440Z,21.3
2017-12-08T02:44:16.334Z,21.3
2017-12-08T02:45:17.951Z,21.4
2017-12-08T02:46:19.573Z,21.3
2017-12-08T02:47:20.619Z,21.4
2017-12-08T02:48:21.936Z,21.4
2017-12-08T02:49:23.279Z,21.3
2017-12-08T02:50:24.628Z,21.3
2017-12-08T02:51:26.510Z,21.3
2017-12-08T02:52:27.829Z,21.3
2017-12-08T02:53:29.723Z,21.3
2017-12-08T02:54:31.623Z,21.3
2017-12-08T02:55:33.510Z,21.3
2017-12-08T02:56:35.409Z,21.3
2017-12-08T02:57:37.303Z,21.3
2017-12-08T02:58:39.239Z,21.2
2017-12-08T02:59:40.836Z,21.3
2017-12-08T03:00:42.163Z,21.3
2017-12-08T03:01:43.504Z,21.3
2017-12-08T03:02:45.123Z,21.3
2017-12-08T03:03:46.794Z,21.3
2017-12-08T03:04:48.117Z,21.3
2017-12-08T03:05:50.012Z,21.3
2017-12-08T03:06:51.909Z,21.3
2017-12-08T03:07:53.804Z,21.2
2017-12-08T03:08:55.422Z,21.3
2017-12-08T03:09:57.020Z,21.3
2017-12-08T03:10:58.083Z,21.3
2017-12-08T03:11:59.980Z,21.3
2017-12-08T03:13:01.024Z,21.3
2017-12-08T03:14:02.921Z,21.3
2017-12-08T03:15:04.816Z,21.3
2017-12-08T03:16:06.435Z,21.2
2017-12-08T03:17:07.480Z,21.3
2017-12-08T03:18:09.078Z,21.3
2017-12-08T03:19:10.428Z,21.2
2017-12-08T03:20:12.045Z,21.3
2017-12-08T03:21:13.385Z,21.2
2017-12-08T03:22:15.002Z,21.2
2017-12-08T03:23:16.620Z,21.2
2017-12-08T03:24:18.238Z,21.3
2017-12-08T03:25:19.559Z,21.3
2017-12-08T03:26:20.602Z,21.3
2017-12-08T03:27:22.539Z,21.3
2017-12-08T03:28:24.136Z,21.2
2017-12-08T03:29:25.752Z,21.3
2017-12-08T03:30:27.648Z,21.2
2017-12-08T03:31:29.252Z,21.2
2017-12-08T03:32:30.850Z,21.3
2017-12-08T03:33:32.189Z,21.3
2017-12-08T03:34:33.530Z,21.3
2017-12-08T03:35:35.425Z,21.3
2017-12-08T03:36:37.048Z,21.2
2017-12-08T03:37:38.666Z,21.3
2017-12-08T03:38:40.286Z,21.2
2017-12-08T03:39:41.904Z,21.3
2017-12-08T03:40:43.798Z,21.3
2017-12-08T03:41:45.395Z,21.3
2017-12-08T03:42:46.715Z,21.3
2017-12-08T03:43:48.615Z,21.3
2017-12-08T03:44:50.543Z,21.2
2017-12-08T03:45:52.439Z,21.3
2017-12-08T03:46:54.058Z,21.2
2017-12-08T03:47:55.402Z,21.3
2017-12-08T03:48:56.994Z,21.3
2017-12-08T03:49:58.889Z,21.2
2017-12-08T03:50:59.965Z,21.2
2017-12-08T03:52:01.859Z,21.2
2017-12-08T03:53:03.509Z,21.3
2017-12-08T03:54:04.844Z,21.2
2017-12-08T03:55:06.474Z,21.2
2017-12-08T03:56:08.370Z,21.3
2017-12-08T03:57:09.985Z,21.3
2017-12-08T03:58:11.326Z,21.2
2017-12-08T03:59:12.955Z,21.2
2017-12-08T04:00:14.570Z,21.2
2017-12-08T04:01:16.476Z,21.2
2017-12-08T04:02:18.087Z,21.2
2017-12-08T04:03:19.449Z,21.2
2017-12-08T04:04:21.347Z,21.2
2017-12-08T04:05:22.663Z,21.2
2017-12-08T04:06:24.484Z,21.2
2017-12-08T04:07:26.078Z,21.1
2017-12-08T04:08:28.013Z,21.2
2017-12-08T04:09:29.925Z,21.1
2017-12-08T04:10:31.819Z,21.2
2017-12-08T04:11:33.716Z,21.2
2017-12-08T04:12:35.311Z,21.2
2017-12-08T04:13:37.207Z,21.2
2017-12-08T04:14:38.825Z,21.2
2017-12-08T04:15:40.442Z,21.2
2017-12-08T04:16:42.339Z,21.2
2017-12-08T04:17:44.233Z,21.1
2017-12-08T04:18:45.630Z,21.1
2017-12-08T04:19:47.526Z,21.1
2017-12-08T04:20:49.144Z,21.1
2017-12-08T04:21:50.490Z,21.1
2017-12-08T04:22:52.107Z,21.1
2017-12-08T04:23:53.727Z,21.2
2017-12-08T04:24:55.623Z,21.1
2017-12-08T04:25:57.223Z,21.1
2017-12-08T04:26:59.119Z,21.2
2017-12-08T04:28:01.015Z,21.1
2017-12-08T04:29:02.617Z,21.1
2017-12-08T04:30:04.239Z,21.1
2017-12-08T04:31:06.134Z,21.1
2017-12-08T04:32:07.753Z,21.1
2017-12-08T04:33:09.353Z,21.2
2017-12-08T04:34:11.248Z,21.1
2017-12-08T04:35:12.570Z,21.1
2017-12-08T04:36:14.480Z,21.1
2017-12-08T04:37:16.082Z,21.1
2017-12-08T04:38:17.701Z,21.2
2017-12-08T04:39:19.318Z,21.1
2017-12-08T04:40:21.213Z,21.1
2017-12-08T04:41:22.811Z,21.2
2017-12-08T04:42:23.858Z,21.1
2017-12-08T04:43:25.748Z,21.2
2017-12-08T04:44:27.071Z,21.1
2017-12-08T04:45:29.008Z,21.1
2017-12-08T04:46:30.908Z,21
2017-12-08T04:47:32.570Z,21.1
2017-12-08T04:48:34.191Z,21.1
2017-12-08T04:49:35.819Z,21.2
2017-12-08T04:50:37.138Z,21.2
2017-12-08T04:51:38.757Z,21.1
2017-12-08T04:52:40.373Z,21.2
2017-12-08T04:53:41.994Z,21.2
2017-12-08T04:54:43.609Z,21.1
2017-12-08T04:55:45.505Z,21.1
2017-12-08T04:56:47.126Z,21
2017-12-08T04:57:48.468Z,21.2
2017-12-08T04:58:50.061Z,21.1
2017-12-08T04:59:51.431Z,21.1
2017-12-08T05:00:53.046Z,21.1
2017-12-08T05:01:54.087Z,21.1
2017-12-08T05:02:55.703Z,21.1
2017-12-08T05:03:57.299Z,21.1
2017-12-08T05:04:58.919Z,21.1
2017-12-08T05:06:00.553Z,21.2
2017-12-08T05:07:02.451Z,21.2
2017-12-08T05:08:04.352Z,21.1
2017-12-08T05:09:05.672Z,21.1
2017-12-08T05:10:06.716Z,21
2017-12-08T05:11:08.336Z,21.2
2017-12-08T05:12:10.232Z,21.2
2017-12-08T05:13:11.850Z,21.2
2017-12-08T05:14:13.805Z,21.1
2017-12-08T05:15:15.692Z,21
2017-12-08T05:16:17.341Z,21.1
2017-12-08T05:17:18.959Z,21.1
2017-12-08T05:18:20.580Z,21.1
2017-12-08T05:19:22.221Z,21.1
2017-12-08T05:20:24.117Z,21.1
2017-12-08T05:21:26.010Z,21.2
2017-12-08T05:22:27.076Z,21.2
2017-12-08T05:23:28.745Z,21.2
2017-12-08T05:24:30.640Z,21.2
2017-12-08T05:25:32.237Z,21.2
2017-12-08T05:26:33.871Z,21.2
2017-12-08T05:27:35.489Z,21.2
2017-12-08T05:28:37.110Z,21.3
2017-12-08T05:29:38.710Z,21.3
2017-12-08T05:30:40.605Z,21.2
2017-12-08T05:31:41.945Z,21.4
2017-12-08T05:32:43.562Z,21.2
2017-12-08T05:33:45.158Z,21.3
2017-12-08T05:34:46.823Z,21.3
2017-12-08T05:35:48.440Z,21.3
2017-12-08T05:36:49.762Z,21.2
2017-12-08T05:37:51.381Z,21.3
2017-12-08T05:38:53.275Z,21.3
2017-12-08T05:39:55.171Z,21.3
2017-12-08T05:40:57.066Z,21.4
2017-12-08T05:41:58.406Z,21.3
2017-12-08T05:43:00.026Z,21.3
2017-12-08T05:44:01.622Z,21.3
2017-12-08T05:45:03.517Z,21.4
2017-12-08T05:46:04.837Z,21.3
2017-12-08T05:47:06.732Z,21.4
2017-12-08T05:48:08.630Z,21.4
2017-12-08T05:49:10.245Z,21.4
2017-12-08T05:50:12.141Z,21.4
2017-12-08T05:51:13.484Z,21.4
2017-12-08T05:52:15.099Z,21.4
2017-12-08T05:53:16.760Z,21.5
2017-12-08T05:54:18.079Z,21.4
2017-12-08T05:55:20.002Z,21.5
2017-12-08T05:56:21.343Z,21.4
2017-12-08T05:57:23.240Z,21.5
2017-12-08T05:58:24.568Z,21.4
2017-12-08T05:59:26.465Z,21.4
2017-12-08T06:00:27.781Z,21.5
2017-12-08T06:01:29.101Z,21.4
2017-12-08T06:02:31.057Z,21.4
2017-12-08T06:03:32.731Z,21.4
2017-12-08T06:04:34.350Z,21.4
2017-12-08T06:05:35.669Z,21.4
2017-12-08T06:06:37.289Z,21.4
2017-12-08T06:07:38.885Z,21.5
2017-12-08T06:08:40.782Z,21.5
2017-12-08T06:09:42.402Z,21.5
2017-12-08T06:10:44.108Z,21.4
2017-12-08T06:11:45.713Z,21.5
2017-12-08T06:12:47.608Z,21.4
2017-12-08T06:13:49.251Z,21.5
2017-12-08T06:14:51.183Z,21.5
2017-12-08T06:15:52.835Z,21.5
2017-12-08T06:16:54.894Z,21.5
2017-12-08T06:17:56.513Z,21.5
2017-12-08T06:18:58.133Z,21.5
2017-12-08T06:19:59.752Z,21.5
2017-12-08T06:21:01.376Z,21.5
2017-12-08T06:22:03.313Z,21.5
2017-12-08T06:23:04.987Z,21.4
2017-12-08T06:24:06.029Z,21.4
2017-12-08T06:25:07.350Z,21.5
2017-12-08T06:26:08.950Z,21.5
2017-12-08T06:27:10.592Z,21.5
2017-12-08T06:28:12.208Z,21.5
2017-12-08T06:29:14.102Z,21.5
2017-12-08T06:30:15.444Z,21.5
2017-12-08T06:31:17.065Z,21.5
2017-12-08T06:32:18.962Z,21.5
2017-12-08T06:33:20.909Z,21.5
2017-12-08T06:34:22.534Z,21.5
2017-12-08T06:35:24.426Z,21.5
2017-12-08T06:36:26.318Z,21.5
2017-12-08T06:37:28.214Z,21.6
2017-12-08T06:38:29.850Z,21.5
2017-12-08T06:39:31.739Z,21.5
2017-12-08T06:40:33.635Z,21.5
2017-12-08T06:41:35.579Z,21.5
2017-12-08T06:42:36.900Z,21.5
2017-12-08T06:43:38.520Z,21.5
2017-12-08T06:44:40.465Z,21.5
2017-12-08T06:45:41.884Z,21.5
2017-12-08T06:46:43.502Z,21.5
2017-12-08T06:47:45.100Z,21.5
2017-12-08T06:48:46.466Z,21.5
2017-12-08T06:49:48.104Z,21.6
2017-12-08T06:50:50.000Z,21.5
2017-12-08T06:51:51.320Z,21.5
2017-12-08T06:52:52.920Z,21.5
2017-12-08T06:53:53.693Z,21.5
2017-12-08T06:54:55.009Z,21.5
2017-12-08T06:55:56.343Z,21.4
2017-12-08T06:56:57.955Z,21.5
2017-12-08T06:57:59.868Z,21.5
2017-12-08T06:59:01.851Z,21.5
2017-12-08T07:00:03.467Z,21.5
2017-12-08T07:01:05.086Z,21.5
2017-12-08T07:02:06.743Z,21.5
2017-12-08T07:03:08.095Z,21.5
2017-12-08T07:04:09.439Z,21.5
2017-12-08T07:05:11.062Z,21.5
2017-12-08T07:06:12.664Z,21.6
2017-12-08T07:07:14.568Z,21.5
2017-12-08T07:08:16.471Z,21.5
2017-12-08T07:09:17.813Z,21.5
2017-12-08T07:10:19.143Z,21.6
2017-12-08T07:11:21.046Z,21.5
2017-12-08T07:12:22.376Z,21.5
2017-12-08T07:13:23.731Z,21.5
2017-12-08T07:14:25.401Z,21.5
2017-12-08T07:15:27.004Z,21.6
2017-12-08T07:16:28.904Z,21.5
2017-12-08T07:17:30.803Z,21.6
2017-12-08T07:18:32.706Z,21.6
2017-12-08T07:19:34.602Z,21.6
2017-12-08T07:20:35.924Z,21.6
2017-12-08T07:21:37.526Z,21.6
2017-12-08T07:22:38.851Z,21.6
2017-12-08T07:23:40.200Z,21.6
2017-12-08T07:24:41.829Z,21.5
2017-12-08T07:25:43.725Z,21.5
2017-12-08T07:26:45.327Z,21.6
2017-12-08T07:27:46.670Z,21.5
2017-12-08T07:28:48.014Z,21.5
2017-12-08T07:29:49.916Z,21.5
2017-12-08T07:30:51.247Z,21.5
2017-12-08T07:31:52.866Z,21.5
2017-12-08T07:32:54.759Z,21.5
2017-12-08T07:33:56.663Z,21.5
2017-12-08T07:34:58.337Z,21.5
2017-12-08T07:35:59.961Z,21.5
2017-12-08T07:37:01.859Z,21.6
2017-12-08T07:38:03.754Z,21.6
2017-12-08T07:39:05.077Z,21.6
2017-12-08T07:40:06.701Z,21.6
2017-12-08T07:41:08.381Z,21.6
2017-12-08T07:42:09.684Z,21.5
2017-12-08T07:43:11.328Z,21.5
2017-12-08T07:44:13.227Z,21.5
2017-12-08T07:45:14.828Z,21.6
2017-12-08T07:46:16.174Z,21.5
2017-12-08T07:47:18.074Z,21.5
2017-12-08T07:48:19.802Z,21.5
2017-12-08T07:49:21.617Z,21.5
2017-12-08T07:50:23.302Z,21.5
2017-12-08T07:51:25.204Z,21.5
2017-12-08T07:52:27.104Z,21.4
2017-12-08T07:53:28.440Z,21.4
2017-12-08T07:54:30.076Z,21.5
2017-12-08T07:55:31.731Z,21.4
2017-12-08T07:56:33.068Z,21.4
2017-12-08T07:57:34.966Z,21.4
2017-12-08T07:58:36.865Z,21.4
2017-12-08T07:59:38.211Z,21.4
2017-12-08T08:02:11.098Z,21.4
2017-12-08T08:03:12.579Z,21.4
2017-12-08T08:04:14.427Z,21.4
2017-12-08T08:05:16.228Z,21.4
2017-12-08T08:06:17.833Z,21.5
2017-12-08T08:07:19.735Z,21.4
2017-12-08T08:08:21.071Z,21.4
2017-12-08T08:09:22.691Z,21.4
2017-12-08T08:10:24.363Z,21.4
2017-12-08T08:11:26.264Z,21.4
2017-12-08T08:12:27.619Z,21.4
2017-12-08T08:13:29.258Z,21.4
2017-12-08T08:14:30.878Z,21.4
2017-12-08T08:15:32.204Z,21.4
2017-12-08T08:16:34.106Z,21.5
2017-12-08T08:17:35.468Z,21.4
2017-12-08T08:18:37.091Z,21.4
2017-12-08T08:19:39.036Z,21.5
2017-12-08T08:20:40.926Z,21.4
2017-12-08T08:21:42.825Z,21.4
2017-12-08T08:22:44.449Z,21.4
2017-12-08T08:23:45.791Z,21.4
2017-12-08T08:24:47.692Z,21.5
2017-12-08T08:25:49.038Z,21.5
2017-12-08T08:26:50.934Z,21.4
2017-12-08T08:27:52.837Z,21.4
2017-12-08T08:28:54.730Z,21.4
2017-12-08T08:29:56.628Z,21.4
2017-12-08T08:30:58.526Z,21.4
2017-12-08T08:32:00.427Z,21.4
2017-12-08T08:33:02.045Z,21.4
2017-12-08T08:34:03.667Z,21.5
2017-12-08T08:35:05.563Z,21.5
2017-12-08T08:36:07.165Z,21.4
2017-12-08T08:37:08.210Z,21.4
2017-12-08T08:38:09.813Z,21.4
2017-12-08T08:39:11.436Z,21.4
2017-12-08T08:40:13.337Z,21.5
2017-12-08T08:41:14.995Z,21.4
2017-12-08T08:42:16.899Z,21.4
2017-12-08T08:43:18.526Z,21.5
2017-12-08T08:44:20.147Z,21.5
2017-12-08T08:45:21.770Z,21.5
2017-12-08T08:46:23.397Z,21.5
2017-12-08T08:47:25.422Z,21.5
2017-12-08T08:48:26.764Z,21.5
2017-12-08T08:49:28.111Z,21.5
2017-12-08T08:50:29.440Z,21.6
2017-12-08T08:51:31.387Z,21.5
2017-12-08T08:52:33.011Z,21.5
2017-12-08T08:53:34.636Z,21.6
2017-12-08T08:54:36.261Z,21.6
2017-12-08T08:55:38.169Z,21.6
2017-12-08T08:56:39.789Z,21.6
2017-12-08T08:57:41.408Z,21.6
2017-12-08T08:58:43.359Z,21.5
2017-12-08T08:59:44.983Z,21.6
2017-12-08T09:00:46.606Z,21.5
2017-12-08T09:01:47.949Z,21.6
2017-12-08T09:02:49.847Z,21.6
2017-12-08T09:03:51.782Z,21.6
2017-12-08T09:04:53.126Z,21.7
2017-12-08T09:05:54.453Z,21.6
2017-12-08T09:06:56.073Z,21.6
2017-12-08T09:07:57.396Z,21.7
2017-12-08T09:08:59.002Z,21.6
2017-12-08T09:10:00.605Z,21.6
2017-12-08T09:11:02.507Z,21.6
2017-12-08T09:12:03.833Z,21.7
2017-12-08T09:13:05.176Z,21.6
2017-12-08T09:14:06.798Z,21.6
2017-12-08T09:15:08.147Z,21.7
2017-12-08T09:16:09.472Z,21.7
2017-12-08T09:17:10.796Z,21.7
2017-12-08T09:18:12.152Z,21.7
2017-12-08T09:19:13.757Z,21.7
2017-12-08T09:20:15.663Z,21.6
2017-12-08T09:21:16.722Z,21.7
2017-12-08T09:22:18.620Z,21.8
2017-12-08T09:23:20.221Z,21.7
2017-12-08T09:24:21.266Z,21.7
2017-12-08T09:25:22.887Z,21.7
2017-12-08T09:26:23.964Z,21.6
2017-12-08T09:27:25.591Z,21.7
2017-12-08T09:28:27.492Z,21.6
2017-12-08T09:29:28.545Z,21.7
2017-12-08T09:30:30.174Z,21.7
2017-12-08T09:31:31.519Z,21.7
2017-12-08T09:32:33.415Z,21.7
2017-12-08T09:33:34.743Z,21.7
2017-12-08T09:34:36.365Z,21.7
2017-12-08T09:35:37.709Z,21.7
2017-12-08T09:36:39.608Z,21.7
2017-12-08T09:37:41.210Z,21.8
2017-12-08T09:38:42.533Z,21.7
2017-12-08T09:39:44.158Z,21.7
2017-12-08T09:40:45.506Z,21.7
2017-12-08T09:41:46.555Z,21.8
2017-12-08T09:42:48.175Z,21.7
2017-12-08T09:43:49.793Z,21.7
2017-12-08T09:44:51.416Z,21.8
2017-12-08T09:45:52.766Z,21.8
2017-12-08T09:46:54.668Z,21.8
2017-12-08T09:47:56.284Z,21.7
2017-12-08T09:48:58.182Z,21.7
2017-12-08T09:49:59.801Z,21.7
2017-12-08T09:51:01.424Z,21.7
2017-12-08T09:52:03.049Z,21.7
2017-12-08T09:53:04.950Z,21.7
2017-12-08T09:54:06.853Z,21.7
2017-12-08T09:55:08.482Z,21.7
2017-12-08T09:56:10.387Z,21.7
2017-12-08T09:57:11.736Z,21.7
2017-12-08T09:58:13.361Z,21.7
2017-12-08T09:59:15.261Z,21.7
2017-12-08T10:00:16.608Z,21.7
2017-12-08T10:01:18.225Z,21.7
2017-12-08T10:02:19.844Z,21.7
2017-12-08T10:03:21.475Z,21.7
2017-12-08T10:04:23.098Z,21.7
2017-12-08T10:05:24.428Z,21.7
2017-12-08T10:06:25.212Z,21.7
2017-12-08T10:07:27.114Z,21.7
2017-12-08T10:08:28.437Z,21.7
2017-12-08T10:09:29.783Z,21.7
2017-12-08T10:10:31.390Z,21.6
2017-12-08T10:11:33.010Z,21.7
2017-12-08T10:12:34.910Z,21.7
2017-12-08T10:13:35.960Z,21.7
2017-12-08T10:14:37.562Z,21.6
2017-12-08T10:15:39.465Z,21.7
2017-12-08T10:16:40.802Z,21.7
2017-12-08T10:17:42.117Z,21.7
2017-12-08T10:18:44.017Z,21.7
2017-12-08T10:19:45.615Z,21.6
2017-12-08T10:20:46.963Z,21.7
2017-12-08T10:21:48.585Z,21.7
2017-12-08T10:22:50.204Z,21.7
2017-12-08T10:23:52.108Z,21.7
2017-12-08T10:24:53.435Z,21.7
2017-12-08T10:25:55.057Z,21.6
2017-12-08T10:26:56.404Z,21.7
2017-12-08T10:27:58.027Z,21.7
2017-12-08T10:28:59.648Z,21.7
2017-12-08T10:30:01.547Z,21.7
2017-12-08T10:31:02.890Z,21.7
2017-12-08T10:32:04.488Z,21.7
2017-12-08T10:33:05.811Z,21.7
2017-12-08T10:34:07.201Z,21.6
2017-12-08T10:35:08.823Z,21.6
2017-12-08T10:36:10.422Z,21.7
2017-12-08T10:37:11.768Z,21.7
2017-12-08T10:38:12.830Z,21.7
2017-12-08T10:39:14.767Z,21.7
2017-12-08T10:40:16.669Z,21.7
2017-12-08T10:41:18.288Z,21.7
2017-12-08T10:42:19.330Z,21.6
2017-12-08T10:43:21.229Z,21.6
2017-12-08T10:44:22.849Z,21.7
2017-12-08T10:45:24.167Z,21.6
2017-12-08T10:46:25.515Z,21.6
2017-12-08T10:47:26.860Z,21.6
2017-12-08T10:48:28.762Z,21.6
2017-12-08T10:49:30.100Z,21.7
2017-12-08T10:50:31.696Z,21.7
2017-12-08T10:51:33.597Z,21.7
2017-12-08T10:52:35.195Z,21.7
2017-12-08T10:53:36.813Z,21.6
2017-12-08T10:54:38.511Z,21.6
2017-12-08T10:55:40.109Z,21.7
2017-12-08T10:56:41.773Z,21.7
2017-12-08T10:57:43.110Z,21.7
2017-12-08T10:58:44.433Z,21.7
2017-12-08T10:59:45.778Z,21.7
2017-12-08T11:00:47.395Z,21.7
2017-12-08T11:01:48.740Z,21.8
2017-12-08T11:02:49.837Z,21.7
2017-12-08T11:03:51.669Z,21.7
2017-12-08T11:04:53.013Z,21.7
2017-12-08T11:05:54.913Z,21.7
2017-12-08T11:06:56.530Z,21.7
2017-12-08T11:07:57.857Z,21.7
2017-12-08T11:08:59.475Z,21.8
2017-12-08T11:10:01.372Z,21.8
2017-12-08T11:11:02.968Z,21.8
2017-12-08T11:12:04.862Z,21.8
2017-12-08T11:13:06.482Z,21.8
2017-12-08T11:14:07.531Z,21.9
2017-12-08T11:15:09.199Z,21.9
2017-12-08T11:16:11.097Z,21.9
2017-12-08T11:17:12.415Z,21.8
2017-12-08T11:18:14.034Z,21.8
2017-12-08T11:19:15.376Z,21.9
2017-12-08T11:20:16.996Z,21.9
2017-12-08T11:21:18.323Z,21.9
2017-12-08T11:22:20.008Z,21.9
2017-12-08T11:23:21.351Z,21.9
2017-12-08T11:24:23.296Z,22
2017-12-08T11:25:25.191Z,21.9
2017-12-08T11:26:26.812Z,21.9
2017-12-08T11:27:28.439Z,21.8
2017-12-08T11:28:30.061Z,21.9
2017-12-08T11:29:31.962Z,21.9
2017-12-08T11:30:33.585Z,21.9
2017-12-08T11:31:35.210Z,21.8
2017-12-08T11:32:36.810Z,21.9
2017-12-08T11:33:38.430Z,21.9
2017-12-08T11:34:40.326Z,21.9
2017-12-08T11:35:41.973Z,22
2017-12-08T11:36:43.290Z,21.9
2017-12-08T11:37:45.186Z,22
2017-12-08T11:38:46.807Z,21.9
2017-12-08T11:39:48.156Z,21.9
2017-12-08T11:40:50.106Z,21.9
2017-12-08T11:41:51.734Z,21.9
2017-12-08T11:42:53.633Z,21.9
2017-12-08T11:43:54.960Z,21.9
2017-12-08T11:44:56.279Z,21.9
2017-12-08T11:45:58.225Z,21.9
2017-12-08T11:46:59.570Z,21.9
2017-12-08T11:48:01.185Z,21.9
2017-12-08T11:49:02.533Z,21.8
2017-12-08T11:50:04.158Z,21.9
2017-12-08T11:51:05.302Z,21.9
2017-12-08T11:52:06.645Z,21.9
2017-12-08T11:53:08.266Z,21.9
2017-12-08T11:54:09.884Z,22
2017-12-08T11:55:11.484Z,21.9
2017-12-08T11:56:13.085Z,21.9
2017-12-08T11:57:14.985Z,21.9
2017-12-08T11:58:16.606Z,22
2017-12-08T11:59:18.228Z,21.9
2017-12-08T12:00:19.846Z,21.9
2017-12-08T12:01:21.167Z,21.9
2017-12-08T12:02:23.065Z,21.9
2017-12-08T12:03:24.107Z,21.9
2017-12-08T12:04:26.004Z,21.9
2017-12-08T12:05:27.350Z,21.9
2017-12-08T12:06:29.247Z,21.9
2017-12-08T12:07:30.587Z,21.9
2017-12-08T12:08:32.482Z,21.9
2017-12-08T12:09:34.090Z,21.9
2017-12-08T12:10:35.432Z,21.9
2017-12-08T12:11:37.053Z,21.9
2017-12-08T12:12:38.676Z,21.9
2017-12-08T12:13:40.267Z,21.9
2017-12-08T12:14:41.893Z,21.9
2017-12-08T12:15:43.787Z,21.9
2017-12-08T12:16:45.684Z,21.8
2017-12-08T12:17:47.036Z,21.9
2017-12-08T12:18:48.356Z,21.8
2017-12-08T12:19:50.256Z,21.8
2017-12-08T12:20:51.324Z,21.9
2017-12-08T12:21:52.925Z,21.8
2017-12-08T12:22:54.246Z,22
2017-12-08T12:23:56.151Z,21.8
2017-12-08T12:24:58.046Z,21.8
2017-12-08T12:25:59.394Z,21.8
2017-12-08T12:27:00.991Z,21.8
2017-12-08T12:28:02.616Z,21.9
2017-12-08T12:29:04.515Z,21.9
2017-12-08T12:30:06.415Z,21.9
2017-12-08T12:31:08.033Z,21.9
2017-12-08T12:32:09.925Z,21.9
2017-12-08T12:33:11.545Z,21.9
2017-12-08T12:34:13.170Z,21.9
2017-12-08T12:35:14.786Z,21.8
2017-12-08T12:36:16.124Z,21.9
2017-12-08T12:37:17.744Z,21.9
2017-12-08T12:38:19.089Z,21.8
2017-12-08T12:39:20.711Z,21.8
2017-12-08T12:40:22.333Z,21.8
2017-12-08T12:41:23.952Z,21.8
2017-12-08T12:42:25.556Z,21.9
2017-12-08T12:43:27.448Z,21.9
2017-12-08T12:44:29.345Z,21.8
2017-12-08T12:45:30.946Z,21.9
2017-12-08T12:46:32.841Z,21.8
2017-12-08T12:47:34.458Z,21.9
2017-12-08T12:48:36.080Z,21.9
2017-12-08T12:49:37.404Z,21.9
2017-12-08T12:50:38.747Z,21.9
2017-12-08T12:51:40.088Z,21.9
2017-12-08T12:52:41.457Z,21.8
2017-12-08T12:53:43.055Z,21.9
2017-12-08T12:54:44.950Z,21.8
2017-12-08T12:55:46.847Z,21.9
2017-12-08T12:56:48.166Z,21.9
2017-12-08T12:57:50.063Z,21.9
2017-12-08T12:58:51.670Z,21.8
2017-12-08T12:59:53.285Z,21.8
2017-12-08T13:00:54.905Z,21.9
2017-12-08T13:01:56.523Z,21.9
2017-12-08T13:02:58.428Z,21.8
2017-12-08T13:04:00.028Z,21.8
2017-12-08T13:05:01.925Z,21.9
2017-12-08T13:06:03.593Z,21.8
2017-12-08T13:07:05.212Z,21.8
2017-12-08T13:08:07.109Z,21.9
2017-12-08T13:09:08.705Z,21.8
2017-12-08T13:10:10.309Z,21.9
2017-12-08T13:11:12.264Z,21.8
2017-12-08T13:12:14.161Z,21.8
2017-12-08T13:13:16.057Z,21.9
2017-12-08T13:14:17.680Z,21.9
2017-12-08T13:15:19.006Z,21.8
2017-12-08T13:16:20.626Z,21.9
2017-12-08T13:17:22.248Z,21.8
2017-12-08T13:18:24.144Z,21.8
2017-12-08T13:19:25.764Z,21.8
2017-12-08T13:20:27.384Z,21.8
2017-12-08T13:21:28.981Z,21.8
2017-12-08T13:22:30.879Z,21.8
2017-12-08T13:23:32.780Z,21.8
2017-12-08T13:24:34.706Z,21.8
2017-12-08T13:25:36.602Z,21.8
2017-12-08T13:26:38.222Z,21.8
2017-12-08T13:27:40.123Z,21.8
2017-12-08T13:28:42.016Z,21.8
2017-12-08T13:29:43.632Z,21.8
2017-12-08T13:30:45.256Z,21.8
2017-12-08T13:31:46.856Z,21.7
2017-12-08T13:32:47.901Z,21.7
2017-12-08T13:33:49.554Z,21.7
2017-12-08T13:34:50.900Z,21.9
2017-12-08T13:35:52.245Z,21.9
2017-12-08T13:36:53.848Z,21.8
2017-12-08T13:37:55.746Z,21.8
2017-12-08T13:38:57.346Z,21.8
2017-12-08T13:39:58.412Z,21.8
2017-12-08T13:40:59.732Z,21.9
2017-12-08T13:42:01.352Z,21.8
2017-12-08T13:43:02.673Z,21.8
2017-12-08T13:44:04.568Z,21.9
2017-12-08T13:45:06.463Z,21.9